Time;durP1;ratioP1;P1;durP2;ratioP2;P2;SDS_P1;SDS_P2;PMS_P1;PMS_P2;Temp;Humidity;BMP_temperature;BMP_pressure;BME280_temperature;BME280_humidity;BME280_pressure;Samples;Min_cycle;Max_cycle;Signal;HPM_P1;HPM_P2
2022/09/01 00:00:49;;;;;;;4.97;3.75;;;;;;;;;;5015651;28;20018;-42
2022/09/01 00:03:17;;;;;;;5.95;3.90;;;;;;;;;;5015531;28;20468;-42
2022/09/01 00:05:45;;;;;;;4.95;3.70;;;;;;;;;;5014999;28;20029;-43
2022/09/01 00:08:11;;;;;;;6.13;3.55;;;;;;;;;;5014900;28;20033;-42
2022/09/01 00:10:37;;;;;;;6.57;3.78;;;;;;;;;;5008735;28;20034;-42
2022/09/01 00:13:05;;;;;;;6.00;3.88;;;;;;;;;;5014830;28;20022;-42
2022/09/01 00:15:32;;;;;;;7.55;4.18;;;;;;;;;;5015504;28;20026;-42
2022/09/01 00:17:58;;;;;;;6.57;3.40;;;;;;;;;;5014860;28;20033;-42
2022/09/01 00:20:24;;;;;;;5.65;4.07;;;;;;;;;;5015330;28;20038;-45
2022/09/01 00:22:50;;;;;;;3.63;3.15;;;;;;;;;;5015518;28;20112;-42
2022/09/01 00:25:18;;;;;;;5.35;4.03;;;;;;;;;;5012806;28;20026;-45
2022/09/01 00:27:45;;;;;;;5.03;3.97;;;;;;;;;;5015147;28;20061;-44
2022/09/01 00:30:11;;;;;;;4.25;3.42;;;;;;;;;;5014424;28;20030;-47
2022/09/01 00:32:37;;;;;;;4.47;3.85;;;;;;;;;;5015102;28;20080;-45
2022/09/01 00:35:03;;;;;;;5.03;3.67;;;;;;;;;;5014148;28;20356;-43
2022/09/01 00:37:29;;;;;;;4.88;3.92;;;;;;;;;;5015124;28;20069;-47
2022/09/01 00:39:55;;;;;;;4.05;3.40;;;;;;;;;;5014169;28;20057;-50
2022/09/01 00:42:21;;;;;;;5.55;3.72;;;;;;;;;;5014769;28;20064;-44
2022/09/01 00:44:47;;;;;;;4.70;3.72;;;;;;;;;;5013118;28;20030;-41
2022/09/01 00:47:13;;;;;;;4.68;3.63;;;;;;;;;;5014141;28;20101;-47
2022/09/01 00:49:42;;;;;;;3.92;3.47;;;;;;;;;;5015014;28;20058;-46
2022/09/01 00:52:20;;;;;;;5.20;4.00;;;;;;;;;;5014045;28;20025;-45
2022/09/01 00:54:58;;;;;;;5.30;3.20;;;;;;;;;;5014780;28;20099;-43
2022/09/01 00:57:25;;;;;;;4.40;3.40;;;;;;;;;;5014626;28;20041;-41
2022/09/01 00:59:56;;;;;;;5.03;3.55;;;;;;;;;;5013769;28;20029;-51
2022/09/01 01:02:22;;;;;;;6.00;3.65;;;;;;;;;;4975691;28;20037;-44
2022/09/01 01:04:48;;;;;;;7.50;3.72;;;;;;;;;;4981442;28;20485;-45
2022/09/01 01:07:15;;;;;;;6.00;3.28;;;;;;;;;;5013288;28;20054;-47
2022/09/01 01:09:43;;;;;;;4.82;3.60;;;;;;;;;;5014406;28;20109;-47
2022/09/01 01:12:17;;;;;;;4.32;3.40;;;;;;;;;;5013572;28;20026;-42
2022/09/01 01:14:44;;;;;;;4.90;3.25;;;;;;;;;;5014437;28;20030;-43
2022/09/01 01:17:11;;;;;;;5.88;4.85;;;;;;;;;;5005782;28;20023;-47
2022/09/01 01:23:07;;;;;;;5.95;2.97;;;;;;;;;;5014350;28;20040;-45
2022/09/01 01:25:48;;;;;;;5.20;3.10;;;;;;;;;;5014241;28;20117;-44
2022/09/01 01:28:24;;;;;;;3.10;2.80;;;;;;;;;;5013208;28;20030;-43
2022/09/01 01:30:53;;;;;;;4.05;3.05;;;;;;;;;;5014029;28;20116;-43
2022/09/01 01:33:21;;;;;;;5.57;3.13;;;;;;;;;;5013241;28;20022;-43
2022/09/01 01:35:47;;;;;;;5.93;3.55;;;;;;;;;;5012085;28;20033;-44
2022/09/01 01:38:15;;;;;;;4.43;3.30;;;;;;;;;;5013259;28;20371;-42
2022/09/01 01:40:41;;;;;;;3.97;3.50;;;;;;;;;;5013821;28;20180;-43
2022/09/01 01:43:07;;;;;;;4.20;3.13;;;;;;;;;;5012972;28;20065;-44
2022/09/01 01:45:34;;;;;;;4.32;2.97;;;;;;;;;;5013802;28;20022;-43
2022/09/01 01:48:04;;;;;;;3.60;3.08;;;;;;;;;;5012842;28;20041;-52
2022/09/01 01:50:34;;;;;;;6.70;3.30;;;;;;;;;;4999161;28;20034;-42
2022/09/01 01:53:02;;;;;;;4.55;2.97;;;;;;;;;;4993418;28;20393;-45
2022/09/01 01:55:29;;;;;;;3.40;3.10;;;;;;;;;;4994176;28;20376;-43
2022/09/01 01:57:56;;;;;;;4.78;3.40;;;;;;;;;;4993814;28;20018;-45
2022/09/01 02:00:25;;;;;;;4.00;3.20;;;;;;;;;;4993665;28;20033;-44
2022/09/01 02:02:52;;;;;;;3.33;2.83;;;;;;;;;;4994023;28;20369;-45
2022/09/01 02:05:25;;;;;;;7.68;4.03;;;;;;;;;;4999835;28;20017;-52
2022/09/01 02:07:55;;;;;;;3.75;3.00;;;;;;;;;;4974014;28;20050;-44
2022/09/01 02:10:28;;;;;;;6.53;3.17;;;;;;;;;;4973900;28;20101;-43
2022/09/01 02:12:55;;;;;;;4.53;3.08;;;;;;;;;;4974368;28;20042;-45
2022/09/01 02:15:21;;;;;;;5.03;3.40;;;;;;;;;;4973532;28;20039;-42
2022/09/01 02:17:47;;;;;;;4.88;2.80;;;;;;;;;;4974199;28;20031;-42
2022/09/01 02:20:14;;;;;;;4.28;2.83;;;;;;;;;;4973293;28;20052;-44
2022/09/01 02:22:43;;;;;;;4.53;2.97;;;;;;;;;;4973875;28;20468;-42
2022/09/01 02:25:09;;;;;;;4.88;3.10;;;;;;;;;;5006238;28;20040;-46
2022/09/01 02:27:38;;;;;;;4.32;3.60;;;;;;;;;;5013166;28;20041;-42
2022/09/01 02:30:08;;;;;;;4.60;3.10;;;;;;;;;;5012193;28;20026;-42
2022/09/01 02:32:34;;;;;;;5.97;3.65;;;;;;;;;;5012766;28;20034;-43
2022/09/01 02:35:00;;;;;;;5.22;3.33;;;;;;;;;;5012063;28;20030;-52
2022/09/01 02:37:27;;;;;;;4.82;3.42;;;;;;;;;;5012929;28;20026;-45
2022/09/01 02:39:56;;;;;;;5.35;3.72;;;;;;;;;;5011218;28;20030;-45
2022/09/01 02:42:25;;;;;;;4.47;3.55;;;;;;;;;;5012004;28;20030;-44
2022/09/01 02:44:51;;;;;;;3.50;3.10;;;;;;;;;;5012784;28;20037;-44
2022/09/01 02:47:17;;;;;;;5.70;3.30;;;;;;;;;;5011969;28;20064;-45
2022/09/01 02:49:45;;;;;;;6.50;3.50;;;;;;;;;;5012504;28;20357;-42
2022/09/01 02:52:14;;;;;;;4.10;3.53;;;;;;;;;;5011941;28;20029;-47
2022/09/01 02:54:42;;;;;;;4.32;3.33;;;;;;;;;;5009147;28;20376;-45
2022/09/01 02:57:08;;;;;;;6.07;3.22;;;;;;;;;;5007545;28;20108;-43
2022/09/01 02:59:36;;;;;;;4.32;3.28;;;;;;;;;;5012275;28;20471;-42
2022/09/01 03:02:02;;;;;;;4.82;3.40;;;;;;;;;;5011948;28;20106;-53
2022/09/01 03:04:28;;;;;;;7.05;2.95;;;;;;;;;;5012234;28;20086;-42
2022/09/01 03:06:57;;;;;;;3.92;3.25;;;;;;;;;;5012041;28;20104;-42
2022/09/01 03:09:23;;;;;;;5.95;3.70;;;;;;;;;;5011602;28;20539;-46
2022/09/01 03:11:50;;;;;;;3.63;2.92;;;;;;;;;;5008093;28;20380;-42
2022/09/01 03:14:16;;;;;;;3.92;3.30;;;;;;;;;;5008514;28;20029;-42
2022/09/01 03:16:43;;;;;;;7.60;3.83;;;;;;;;;;5012394;28;20367;-44
2022/09/01 03:19:10;;;;;;;3.70;3.10;;;;;;;;;;5011654;28;20025;-44
2022/09/01 03:21:40;;;;;;;4.18;3.58;;;;;;;;;;5012267;28;20021;-42
2022/09/01 03:24:13;;;;;;;4.22;3.33;;;;;;;;;;5011533;28;20033;-42
2022/09/01 03:26:39;;;;;;;4.75;3.95;;;;;;;;;;5013983;28;20021;-42
2022/09/01 03:29:05;;;;;;;4.32;3.58;;;;;;;;;;5016551;28;20026;-42
2022/09/01 03:31:31;;;;;;;5.07;3.72;;;;;;;;;;5018692;28;20418;-45
2022/09/01 03:33:58;;;;;;;4.45;3.72;;;;;;;;;;5018378;28;20026;-43
2022/09/01 03:36:25;;;;;;;5.55;3.78;;;;;;;;;;5000336;28;20025;-43
2022/09/01 03:38:51;;;;;;;6.63;3.88;;;;;;;;;;5001312;28;20468;-47
2022/09/01 03:41:20;;;;;;;6.50;3.33;;;;;;;;;;5017645;28;20440;-42
2022/09/01 03:43:47;;;;;;;4.78;3.85;;;;;;;;;;5018698;28;20033;-45
2022/09/01 03:46:18;;;;;;;6.13;4.25;;;;;;;;;;5015774;28;20025;-44
2022/09/01 03:48:46;;;;;;;4.82;4.07;;;;;;;;;;5011114;28;20029;-48
2022/09/01 03:51:14;;;;;;;6.28;3.90;;;;;;;;;;5017801;28;20030;-42
2022/09/01 03:53:40;;;;;;;5.43;3.45;;;;;;;;;;5000954;28;20418;-44
2022/09/01 03:56:07;;;;;;;4.65;3.80;;;;;;;;;;5017828;28;20026;-46
2022/09/01 03:58:34;;;;;;;7.57;3.90;;;;;;;;;;5018559;28;20026;-42
2022/09/01 04:01:01;;;;;;;5.78;3.45;;;;;;;;;;5017332;28;20558;-44
2022/09/01 04:03:30;;;;;;;6.60;3.65;;;;;;;;;;5008893;28;20025;-42
2022/09/01 04:05:56;;;;;;;5.22;3.33;;;;;;;;;;5018148;28;20112;-44
2022/09/01 04:08:29;;;;;;;7.30;4.25;;;;;;;;;;5017672;28;20025;-42
2022/09/01 04:10:57;;;;;;;4.10;3.20;;;;;;;;;;5018409;28;20104;-45
2022/09/01 04:13:29;;;;;;;4.30;3.50;;;;;;;;;;5017666;28;20022;-45
2022/09/01 04:15:55;;;;;;;5.70;3.80;;;;;;;;;;5018315;28;20034;-46
2022/09/01 04:18:22;;;;;;;6.00;4.00;;;;;;;;;;5017307;28;20087;-42
2022/09/01 04:20:58;;;;;;;5.35;3.42;;;;;;;;;;5013024;28;20049;-42
2022/09/01 04:23:32;;;;;;;4.70;3.22;;;;;;;;;;4988939;28;20030;-43
2022/09/01 04:26:13;;;;;;;5.30;3.85;;;;;;;;;;4987939;28;20046;-42
2022/09/01 04:28:44;;;;;;;7.30;3.90;;;;;;;;;;4988062;28;20027;-44
2022/09/01 04:31:13;;;;;;;5.90;4.15;;;;;;;;;;4988056;28;20101;-44
2022/09/01 04:33:39;;;;;;;5.10;3.40;;;;;;;;;;4987927;28;20018;-43
2022/09/01 04:36:13;;;;;;;5.63;4.10;;;;;;;;;;4986609;28;20021;-50
2022/09/01 04:38:38;;;;;;;5.40;3.50;;;;;;;;;;4987861;28;20408;-44
2022/09/01 04:41:06;;;;;;;4.60;3.85;;;;;;;;;;4983245;28;20035;-50
2022/09/01 04:43:32;;;;;;;5.28;4.03;;;;;;;;;;4985094;28;20018;-41
2022/09/01 04:45:59;;;;;;;6.18;3.90;;;;;;;;;;4984561;28;20081;-43
2022/09/01 04:48:25;;;;;;;5.28;4.00;;;;;;;;;;4983583;28;20034;-40
2022/09/01 04:50:52;;;;;;;6.18;3.55;;;;;;;;;;4985130;28;20423;-39
2022/09/01 04:53:19;;;;;;;5.60;3.22;;;;;;;;;;4985335;28;20065;-45
2022/09/01 04:55:46;;;;;;;5.90;4.25;;;;;;;;;;4992178;28;20418;-43
2022/09/01 04:58:16;;;;;;;6.13;3.95;;;;;;;;;;4994275;28;20061;-42
2022/09/01 05:00:43;;;;;;;4.70;4.13;;;;;;;;;;4995237;28;20065;-42
2022/09/01 05:03:10;;;;;;;5.25;4.28;;;;;;;;;;4993979;28;20080;-45
2022/09/01 05:05:41;;;;;;;4.28;3.83;;;;;;;;;;5004735;28;20375;-42
2022/09/01 05:08:15;;;;;;;6.20;3.67;;;;;;;;;;5010720;28;20042;-49
2022/09/01 05:10:42;;;;;;;6.40;3.97;;;;;;;;;;5006912;28;20037;-45
2022/09/01 05:13:10;;;;;;;4.45;3.70;;;;;;;;;;5013807;28;20112;-49
2022/09/01 05:15:37;;;;;;;6.22;4.30;;;;;;;;;;5014407;28;20026;-42
2022/09/01 05:18:08;;;;;;;5.72;4.18;;;;;;;;;;5014067;28;20556;-44
2022/09/01 05:20:37;;;;;;;6.47;4.10;;;;;;;;;;5014601;28;20491;-42
2022/09/01 05:23:03;;;;;;;4.28;3.83;;;;;;;;;;5014360;28;20063;-46
2022/09/01 05:25:30;;;;;;;7.43;4.57;;;;;;;;;;4994234;28;20022;-42
2022/09/01 05:27:56;;;;;;;7.15;4.88;;;;;;;;;;5013401;28;20057;-45
2022/09/01 05:30:22;;;;;;;8.40;5.28;;;;;;;;;;4977977;28;20373;-44
2022/09/01 05:32:49;;;;;;;6.60;4.68;;;;;;;;;;5005434;28;20511;-42
2022/09/01 05:35:16;;;;;;;10.15;5.40;;;;;;;;;;4988334;28;20033;-41
2022/09/01 05:37:42;;;;;;;5.95;4.88;;;;;;;;;;5000831;28;20037;-41
2022/09/01 05:40:14;;;;;;;8.32;5.07;;;;;;;;;;4995978;28;20541;-47
2022/09/01 05:42:40;;;;;;;7.40;5.63;;;;;;;;;;5005449;28;20158;-41
2022/09/01 05:45:09;;;;;;;8.65;5.55;;;;;;;;;;5003570;28;20034;-49
2022/09/01 05:47:36;;;;;;;9.57;5.80;;;;;;;;;;5000469;28;20034;-40
2022/09/01 05:50:04;;;;;;;7.45;5.28;;;;;;;;;;4975964;28;20081;-40
2022/09/01 05:52:32;;;;;;;6.68;5.57;;;;;;;;;;4973267;28;20126;-39
2022/09/01 05:54:59;;;;;;;9.25;5.60;;;;;;;;;;4973995;28;20039;-41
2022/09/01 05:57:25;;;;;;;8.55;5.38;;;;;;;;;;4980588;28;20033;-41
2022/09/01 05:59:54;;;;;;;11.70;5.72;;;;;;;;;;4981103;28;20408;-43
2022/09/01 06:02:21;;;;;;;7.65;4.80;;;;;;;;;;4972671;28;20035;-42
2022/09/01 06:04:48;;;;;;;8.48;5.43;;;;;;;;;;4980315;28;20041;-42
2022/09/01 06:07:15;;;;;;;11.55;6.50;;;;;;;;;;4994770;28;20454;-42
2022/09/01 06:09:42;;;;;;;8.85;5.25;;;;;;;;;;4978936;28;20058;-42
2022/09/01 06:12:16;;;;;;;9.10;5.60;;;;;;;;;;4973286;28;20027;-50
2022/09/01 06:14:42;;;;;;;7.05;5.72;;;;;;;;;;4985922;28;20044;-41
2022/09/01 06:17:10;;;;;;;8.93;5.20;;;;;;;;;;4994976;28;20467;-49
2022/09/01 06:19:39;;;;;;;8.13;5.93;;;;;;;;;;4985792;28;20038;-41
2022/09/01 06:22:06;;;;;;;10.05;5.40;;;;;;;;;;4993747;28;20034;-41
2022/09/01 06:24:32;;;;;;;6.97;5.32;;;;;;;;;;4988952;28;20034;-41
2022/09/01 06:26:58;;;;;;;8.35;6.20;;;;;;;;;;5005259;28;20375;-40
2022/09/01 06:29:24;;;;;;;6.60;5.30;;;;;;;;;;5005477;28;20065;-41
2022/09/01 06:31:51;;;;;;;8.65;6.13;;;;;;;;;;5012332;28;20108;-41
2022/09/01 06:34:18;;;;;;;6.90;5.43;;;;;;;;;;4983799;28;20372;-43
2022/09/01 06:36:45;;;;;;;9.13;6.00;;;;;;;;;;5008348;28;20049;-42
2022/09/01 06:39:18;;;;;;;7.70;4.93;;;;;;;;;;5003507;28;20026;-49
2022/09/01 06:41:46;;;;;;;9.85;5.03;;;;;;;;;;4999560;28;20048;-41
2022/09/01 06:44:13;;;;;;;6.97;5.22;;;;;;;;;;4992499;28;20435;-44
2022/09/01 06:46:39;;;;;;;9.35;5.07;;;;;;;;;;4979481;28;20026;-41
2022/09/01 06:49:10;;;;;;;9.20;5.40;;;;;;;;;;5006974;28;20026;-42
2022/09/01 06:51:36;;;;;;;8.52;4.80;;;;;;;;;;5011369;28;20032;-41
2022/09/01 06:54:02;;;;;;;6.70;4.72;;;;;;;;;;4994911;28;20463;-42
2022/09/01 06:56:30;;;;;;;10.85;5.15;;;;;;;;;;4978100;28;20033;-43
2022/09/01 06:58:57;;;;;;;12.75;5.75;;;;;;;;;;4994672;28;20069;-42
2022/09/01 07:01:26;;;;;;;8.23;5.32;;;;;;;;;;4971070;28;20053;-43
2022/09/01 07:03:53;;;;;;;9.70;5.82;;;;;;;;;;4984089;28;20460;-43
2022/09/01 07:06:25;;;;;;;8.18;4.50;;;;;;;;;;4989189;28;20096;-44
2022/09/01 07:08:53;;;;;;;5.90;4.80;;;;;;;;;;4994526;28;20034;-42
2022/09/01 07:11:24;;;;;;;6.63;4.68;;;;;;;;;;5008710;28;20034;-42
2022/09/01 07:13:52;;;;;;;8.48;5.28;;;;;;;;;;4996266;28;20030;-46
2022/09/01 07:16:20;;;;;;;5.95;4.72;;;;;;;;;;4999016;28;20403;-41
2022/09/01 07:18:47;;;;;;;7.10;5.10;;;;;;;;;;5006187;28;20393;-42
2022/09/01 07:21:13;;;;;;;8.88;5.43;;;;;;;;;;5002654;28;20054;-51
2022/09/01 07:23:39;;;;;;;9.80;5.55;;;;;;;;;;4991368;28;20022;-42
2022/09/01 07:26:05;;;;;;;8.73;6.00;;;;;;;;;;4988519;28;20160;-42
2022/09/01 07:28:32;;;;;;;8.32;5.07;;;;;;;;;;4989809;28;20076;-42
2022/09/01 07:30:58;;;;;;;11.10;4.72;;;;;;;;;;5001805;28;20034;-43
2022/09/01 07:33:26;;;;;;;11.20;5.22;;;;;;;;;;4996701;28;20464;-44
2022/09/01 07:35:54;;;;;;;10.70;5.72;;;;;;;;;;4984802;28;20476;-44
2022/09/01 07:38:20;;;;;;;10.50;7.18;;;;;;;;;;4989903;28;20475;-43
2022/09/01 07:40:47;;;;;;;9.82;6.80;;;;;;;;;;5000801;28;20137;-42
2022/09/01 07:43:32;;;;;;;8.35;6.22;;;;;;;;;;4993615;28;20037;-50
2022/09/01 07:45:58;;;;;;;9.95;7.20;;;;;;;;;;4987694;28;20049;-43
2022/09/01 07:48:26;;;;;;;9.88;7.63;;;;;;;;;;5004209;28;20023;-47
2022/09/01 07:50:53;;;;;;;10.93;6.95;;;;;;;;;;4995268;28;20488;-46
2022/09/01 07:53:21;;;;;;;9.27;6.95;;;;;;;;;;4992809;28;20046;-47
2022/09/01 07:55:49;;;;;;;9.18;6.85;;;;;;;;;;4996463;28;20026;-43
2022/09/01 07:58:16;;;;;;;9.02;6.18;;;;;;;;;;4990966;28;20053;-51
2022/09/01 08:00:45;;;;;;;8.70;6.63;;;;;;;;;;5006989;28;20046;-41
2022/09/01 08:03:11;;;;;;;9.32;6.80;;;;;;;;;;4994395;28;20418;-42
2022/09/01 08:05:37;;;;;;;8.93;6.60;;;;;;;;;;4982393;28;20062;-50
2022/09/01 08:08:03;;;;;;;9.02;6.35;;;;;;;;;;4976878;28;20042;-43
2022/09/01 08:10:29;;;;;;;11.07;7.15;;;;;;;;;;4986762;28;20042;-43
2022/09/01 08:12:55;;;;;;;9.43;6.57;;;;;;;;;;4977441;28;20023;-48
2022/09/01 08:15:22;;;;;;;8.50;6.32;;;;;;;;;;4993267;28;20114;-41
2022/09/01 08:17:48;;;;;;;7.60;5.53;;;;;;;;;;4982743;28;20033;-42
2022/09/01 08:20:16;;;;;;;6.45;5.07;;;;;;;;;;4993131;28;20118;-49
2022/09/01 08:22:41;;;;;;;7.47;5.50;;;;;;;;;;4978303;28;20042;-42
2022/09/01 08:25:08;;;;;;;6.97;5.28;;;;;;;;;;4983886;28;20043;-42
2022/09/01 08:27:37;;;;;;;7.15;5.45;;;;;;;;;;4982947;28;20648;-43
2022/09/01 08:30:04;;;;;;;8.60;5.20;;;;;;;;;;4989548;28;20507;-42
2022/09/01 08:32:31;;;;;;;5.43;4.85;;;;;;;;;;4977831;28;20102;-42
2022/09/01 08:34:57;;;;;;;6.05;4.63;;;;;;;;;;4983641;28;20038;-42
2022/09/01 08:37:24;;;;;;;6.47;5.53;;;;;;;;;;4993326;28;20041;-45
2022/09/01 08:39:51;;;;;;;7.63;5.60;;;;;;;;;;4991617;28;20041;-42
2022/09/01 08:42:35;;;;;;;7.22;5.78;;;;;;;;;;4977046;28;20376;-52
2022/09/01 08:45:11;;;;;;;7.35;5.22;;;;;;;;;;4990332;28;20423;-43
2022/09/01 08:47:37;;;;;;;5.72;4.80;;;;;;;;;;4989699;28;20022;-42
2022/09/01 08:50:04;;;;;;;9.77;4.72;;;;;;;;;;4991361;28;20038;-41
2022/09/01 08:52:35;;;;;;;8.20;4.07;;;;;;;;;;4992318;28;20022;-41
2022/09/01 08:55:14;;;;;;;9.32;3.95;;;;;;;;;;4975781;28;20419;-41
2022/09/01 08:57:41;;;;;;;8.90;3.63;;;;;;;;;;4981289;28;20110;-41
2022/09/01 09:00:10;;;;;;;5.68;3.90;;;;;;;;;;4990007;28;20731;-41
2022/09/01 09:02:44;;;;;;;5.88;3.95;;;;;;;;;;4989907;28;20034;-41
2022/09/01 09:05:19;;;;;;;7.47;3.70;;;;;;;;;;4976249;28;20102;-42
2022/09/01 09:07:45;;;;;;;4.85;3.50;;;;;;;;;;4986458;28;20054;-41
2022/09/01 09:10:17;;;;;;;5.20;3.40;;;;;;;;;;4997838;28;20041;-41
2022/09/01 09:12:43;;;;;;;4.10;3.55;;;;;;;;;;4997267;28;20026;-42
2022/09/01 09:15:09;;;;;;;4.82;3.50;;;;;;;;;;4999437;28;20097;-41
2022/09/01 09:17:39;;;;;;;5.55;3.92;;;;;;;;;;4994298;28;20111;-42
2022/09/01 09:20:05;;;;;;;5.15;4.07;;;;;;;;;;4990012;28;20794;-42
2022/09/01 09:22:32;;;;;;;5.10;4.20;;;;;;;;;;5007191;28;20080;-44
2022/09/01 09:25:04;;;;;;;3.90;3.35;;;;;;;;;;4986056;28;20026;-41
2022/09/01 09:27:30;;;;;;;;;;;;;;;;;;5011141;28;20084;-44
2022/09/01 09:29:56;;;;;;;4.60;3.42;;;;;;;;;;5008482;28;19905;-40
2022/09/01 09:32:23;;;;;;;6.15;3.35;;;;;;;;;;4996036;28;20384;-42
2022/09/01 09:34:49;;;;;;;7.03;3.50;;;;;;;;;;4989987;28;20037;-41
2022/09/01 09:37:16;;;;;;;7.35;3.30;;;;;;;;;;5001778;28;20034;-52
2022/09/01 09:39:42;;;;;;;6.57;3.38;;;;;;;;;;5007999;28;20028;-42
2022/09/01 09:42:12;;;;;;;5.25;3.40;;;;;;;;;;4996526;28;20499;-40
2022/09/01 09:44:42;;;;;;;4.43;3.50;;;;;;;;;;4994485;28;20193;-41
2022/09/01 09:47:09;;;;;;;4.20;3.13;;;;;;;;;;5011398;28;20034;-43
2022/09/01 09:49:36;;;;;;;5.60;3.15;;;;;;;;;;5007280;28;20060;-41
2022/09/01 09:52:02;;;;;;;5.80;3.40;;;;;;;;;;4998160;28;20162;-44
2022/09/01 09:54:29;;;;;;;4.13;3.22;;;;;;;;;;4988741;28;20472;-40
2022/09/01 09:57:07;;;;;;;5.10;3.03;;;;;;;;;;4984611;28;20046;-40
2022/09/01 09:59:37;;;;;;;4.57;3.35;;;;;;;;;;5002490;28;20042;-40
2022/09/01 10:02:33;;;;;;;4.18;3.40;;;;;;;;;;5007817;28;20495;-42
2022/09/01 10:05:19;;;;;;;3.40;3.05;;;;;;;;;;4980376;28;20113;-43
2022/09/01 10:07:45;;;;;;;5.07;2.83;;;;;;;;;;5004703;28;20077;-41
2022/09/01 10:10:30;;;;;;;4.10;3.10;;;;;;;;;;5007684;28;20058;-43
2022/09/01 10:12:56;;;;;;;3.50;3.00;;;;;;;;;;4992436;28;20526;-46
2022/09/01 10:15:24;;;;;;;3.22;2.92;;;;;;;;;;4998095;28;20374;-42
2022/09/01 10:17:52;;;;;;;5.70;2.95;;;;;;;;;;4999227;28;20109;-42
2022/09/01 10:20:22;;;;;;;5.45;3.03;;;;;;;;;;5002854;28;20441;-52
2022/09/01 10:22:48;;;;;;;4.22;2.83;;;;;;;;;;4990083;28;20042;-43
2022/09/01 10:25:23;;;;;;;4.18;2.80;;;;;;;;;;4997252;28;20478;-41
2022/09/01 10:27:52;;;;;;;8.50;2.97;;;;;;;;;;4999420;28;20120;-41
2022/09/01 10:30:19;;;;;;;4.32;3.00;;;;;;;;;;5006196;28;20081;-51
2022/09/01 10:32:47;;;;;;;4.63;2.85;;;;;;;;;;4997099;28;20046;-42
2022/09/01 10:35:39;;;;;;;3.25;2.70;;;;;;;;;;4992526;28;20076;-42
2022/09/01 10:38:05;;;;;;;;;;;;;;;;;;4991224;28;20383;-43
2022/09/01 10:40:45;;;;;;;4.60;2.50;;;;;;;;;;5002953;28;19956;-42
2022/09/01 10:43:26;;;;;;;4.68;2.30;;;;;;;;;;5002341;28;20472;-44
2022/09/01 10:45:52;;;;;;;3.85;2.90;;;;;;;;;;4999450;28;20423;-44
2022/09/01 10:48:22;;;;;;;3.75;2.30;;;;;;;;;;4992969;28;20037;-54
2022/09/01 10:50:48;;;;;;;4.85;2.40;;;;;;;;;;5005061;28;20044;-42
2022/09/01 10:53:33;;;;;;;6.00;2.63;;;;;;;;;;4993778;28;20026;-43
2022/09/01 10:56:16;;;;;;;3.60;2.35;;;;;;;;;;5000419;28;20037;-42
2022/09/01 10:58:48;;;;;;;4.57;2.10;;;;;;;;;;4979974;28;20026;-42
2022/09/01 11:01:14;;;;;;;2.67;2.28;;;;;;;;;;5003121;28;20118;-43
2022/09/01 11:03:56;;;;;;;3.00;2.28;;;;;;;;;;4990850;28;20027;-44
2022/09/01 11:06:33;;;;;;;2.85;1.92;;;;;;;;;;4990991;28;20046;-44
2022/09/01 11:09:05;;;;;;;4.40;2.45;;;;;;;;;;5003410;28;20037;-41
2022/09/01 11:11:39;;;;;;;3.45;2.17;;;;;;;;;;5000652;28;20569;-42
2022/09/01 11:14:16;;;;;;;2.40;2.10;;;;;;;;;;4992873;28;20023;-44
2022/09/01 11:16:42;;;;;;;4.43;2.22;;;;;;;;;;4979446;28;20026;-47
2022/09/01 11:19:17;;;;;;;5.47;2.72;;;;;;;;;;5006721;28;20491;-42
2022/09/01 11:21:44;;;;;;;3.75;2.25;;;;;;;;;;4998574;28;20088;-42
2022/09/01 11:24:29;;;;;;;3.88;2.65;;;;;;;;;;4987461;28;20554;-40
2022/09/01 11:26:55;;;;;;;2.78;2.28;;;;;;;;;;4992222;28;20044;-41
2022/09/01 11:29:39;;;;;;;3.17;2.10;;;;;;;;;;5006915;28;20101;-48
2022/09/01 11:32:06;;;;;;;4.45;2.38;;;;;;;;;;4996060;28;20125;-41
2022/09/01 11:34:40;;;;;;;3.50;2.20;;;;;;;;;;4988601;28;20114;-41
2022/09/01 11:37:11;;;;;;;5.25;2.53;;;;;;;;;;5004191;28;20043;-41
2022/09/01 11:39:40;;;;;;;6.35;2.47;;;;;;;;;;4999596;28;20022;-42
2022/09/01 11:42:18;;;;;;;2.83;2.42;;;;;;;;;;4995663;28;20030;-42
2022/09/01 11:44:49;;;;;;;4.18;2.22;;;;;;;;;;4981659;28;20050;-41
2022/09/01 11:47:15;;;;;;;;;;;;;;;;;;5000326;28;20045;-41
2022/09/01 11:49:58;;;;;;;3.20;2.03;;;;;;;;;;5009387;28;19901;-40
2022/09/01 11:52:26;;;;;;;2.78;2.03;;;;;;;;;;4997649;28;20105;-41
2022/09/01 11:54:53;;;;;;;3.67;1.90;;;;;;;;;;4988574;28;20050;-40
2022/09/01 11:57:24;;;;;;;4.30;2.10;;;;;;;;;;5003727;28;20100;-52
2022/09/01 11:59:50;;;;;;;2.67;2.05;;;;;;;;;;5003780;28;20023;-41
2022/09/01 12:02:21;;;;;;;3.30;2.15;;;;;;;;;;4993660;28;20377;-42
2022/09/01 12:04:49;;;;;;;2.80;2.10;;;;;;;;;;4986197;28;20042;-42
2022/09/01 12:07:25;;;;;;;3.20;2.03;;;;;;;;;;5003179;28;20403;-42
2022/09/01 12:09:51;;;;;;;2.80;2.13;;;;;;;;;;5009682;28;20072;-41
2022/09/01 12:12:31;;;;;;;5.82;2.15;;;;;;;;;;4998071;28;20383;-46
2022/09/01 12:14:58;;;;;;;2.65;2.30;;;;;;;;;;4998856;28;20030;-43
2022/09/01 12:17:24;;;;;;;2.38;1.92;;;;;;;;;;5011588;28;20077;-45
2022/09/01 12:19:50;;;;;;;3.38;2.15;;;;;;;;;;5009441;28;20053;-41
2022/09/01 12:22:18;;;;;;;2.42;1.85;;;;;;;;;;4998035;28;20391;-44
2022/09/01 12:24:49;;;;;;;4.05;2.45;;;;;;;;;;4992456;28;20022;-43
2022/09/01 12:27:15;;;;;;;4.32;2.30;;;;;;;;;;5005924;28;20042;-44
2022/09/01 12:29:42;;;;;;;3.72;2.40;;;;;;;;;;4997436;28;20621;-45
2022/09/01 12:32:09;;;;;;;2.80;2.00;;;;;;;;;;5010278;28;20045;-43
2022/09/01 12:34:42;;;;;;;5.70;2.38;;;;;;;;;;4996119;28;21791;-42
2022/09/01 12:37:26;;;;;;;3.10;2.10;;;;;;;;;;5013258;28;20113;-42
2022/09/01 12:39:54;;;;;;;1.83;1.67;;;;;;;;;;4991887;28;20061;-41
2022/09/01 12:42:20;;;;;;;3.58;2.10;;;;;;;;;;5010351;28;20077;-53
2022/09/01 12:44:56;;;;;;;2.50;2.03;;;;;;;;;;4994627;28;20095;-44
2022/09/01 12:47:34;;;;;;;2.63;2.05;;;;;;;;;;4992730;28;20109;-50
2022/09/01 12:50:03;;;;;;;3.45;1.98;;;;;;;;;;5009443;28;20455;-46
2022/09/01 12:52:31;;;;;;;2.50;1.88;;;;;;;;;;5000065;28;20387;-45
2022/09/01 12:55:05;;;;;;;3.58;1.90;;;;;;;;;;4993163;28;20041;-43
2022/09/01 12:57:34;;;;;;;2.83;2.17;;;;;;;;;;5002223;28;20026;-43
2022/09/01 13:00:19;;;;;;;2.75;2.15;;;;;;;;;;5004413;28;20021;-44
2022/09/01 13:02:45;;;;;;;2.42;2.22;;;;;;;;;;4982410;28;20045;-43
2022/09/01 13:05:29;;;;;;;3.00;2.00;;;;;;;;;;4989149;28;20073;-43
2022/09/01 13:07:56;;;;;;;2.97;1.80;;;;;;;;;;5001694;28;20591;-49
2022/09/01 13:10:27;;;;;;;2.17;1.98;;;;;;;;;;4999425;28;20080;-53
2022/09/01 13:12:53;;;;;;;2.33;2.13;;;;;;;;;;4995343;28;20562;-43
2022/09/01 13:15:19;;;;;;;3.00;2.13;;;;;;;;;;4996340;28;20435;-45
2022/09/01 13:17:46;;;;;;;4.63;2.42;;;;;;;;;;5009380;28;20041;-44
2022/09/01 13:20:12;;;;;;;1.90;1.70;;;;;;;;;;4999964;28;20372;-48
2022/09/01 13:22:40;;;;;;;2.38;2.17;;;;;;;;;;4979900;28;20049;-44
2022/09/01 13:25:06;;;;;;;2.60;2.03;;;;;;;;;;4993180;28;20084;-43
2022/09/01 13:27:32;;;;;;;2.92;2.22;;;;;;;;;;5001680;28;20050;-43
2022/09/01 13:29:58;;;;;;;2.72;2.00;;;;;;;;;;5005458;28;20030;-45
2022/09/01 13:32:24;;;;;;;2.70;2.50;;;;;;;;;;4996428;28;20034;-52
2022/09/01 13:34:52;;;;;;;2.47;2.00;;;;;;;;;;4992335;28;20053;-46
2022/09/01 13:37:18;;;;;;;2.38;2.17;;;;;;;;;;5004451;28;20515;-43
2022/09/01 13:39:45;;;;;;;3.03;2.10;;;;;;;;;;5002048;28;20018;-44
2022/09/01 13:42:12;;;;;;;3.60;1.70;;;;;;;;;;4996524;28;20052;-42
2022/09/01 13:44:38;;;;;;;2.17;1.98;;;;;;;;;;4979151;28;20471;-43
2022/09/01 13:47:04;;;;;;;2.78;2.00;;;;;;;;;;4999752;28;20534;-44
2022/09/01 13:49:30;;;;;;;2.50;2.22;;;;;;;;;;5007626;28;20026;-41
2022/09/01 13:51:56;;;;;;;3.47;2.20;;;;;;;;;;4998399;28;20031;-45
2022/09/01 13:54:22;;;;;;;6.97;2.95;;;;;;;;;;4987320;28;20033;-55
2022/09/01 13:56:48;;;;;;;2.47;2.15;;;;;;;;;;5006994;28;20023;-43
2022/09/01 13:59:14;;;;;;;3.15;1.73;;;;;;;;;;5000718;28;20081;-45
2022/09/01 14:01:41;;;;;;;2.30;2.03;;;;;;;;;;4999683;28;20045;-45
2022/09/01 14:04:07;;;;;;;1.98;1.70;;;;;;;;;;4988953;28;20515;-45
2022/09/01 14:06:38;;;;;;;2.38;2.08;;;;;;;;;;4995682;28;20052;-45
2022/09/01 14:09:04;;;;;;;4.60;2.17;;;;;;;;;;5006694;28;20034;-43
2022/09/01 14:11:31;;;;;;;2.75;2.30;;;;;;;;;;5001184;28;20487;-43
2022/09/01 14:13:57;;;;;;;2.75;2.20;;;;;;;;;;4990283;28;20867;-44
2022/09/01 14:16:22;;;;;;;3.22;2.20;;;;;;;;;;4998599;28;20494;-52
2022/09/01 14:18:48;;;;;;;2.92;1.80;;;;;;;;;;4998246;28;20042;-43
2022/09/01 14:21:15;;;;;;;2.42;2.22;;;;;;;;;;4998556;28;20050;-43
2022/09/01 14:23:42;;;;;;;3.17;1.88;;;;;;;;;;4990505;28;20058;-43
2022/09/01 14:26:10;;;;;;;2.72;2.10;;;;;;;;;;5004523;28;20021;-43
2022/09/01 14:28:36;;;;;;;2.20;2.00;;;;;;;;;;4992809;28;20037;-45
2022/09/01 14:31:07;;;;;;;3.80;2.08;;;;;;;;;;4999728;28;20026;-44
2022/09/01 14:33:33;;;;;;;2.20;2.00;;;;;;;;;;4992396;28;20130;-43
2022/09/01 14:35:59;;;;;;;3.42;2.42;;;;;;;;;;5001372;28;20420;-43
2022/09/01 14:38:25;;;;;;;3.22;2.20;;;;;;;;;;4992761;28;20073;-53
2022/09/01 14:40:51;;;;;;;3.65;2.10;;;;;;;;;;5006500;28;20026;-42
2022/09/01 14:43:17;;;;;;;2.45;2.00;;;;;;;;;;4994810;28;20418;-42
2022/09/01 14:45:45;;;;;;;3.33;1.90;;;;;;;;;;4989150;28;20097;-45
2022/09/01 14:48:13;;;;;;;2.88;2.20;;;;;;;;;;5002898;28;20063;-44
2022/09/01 14:50:40;;;;;;;2.08;1.88;;;;;;;;;;4984600;28;20093;-47
2022/09/01 14:53:06;;;;;;;2.10;1.90;;;;;;;;;;4995702;28;20061;-45
2022/09/01 14:55:32;;;;;;;3.45;2.10;;;;;;;;;;5001694;28;20030;-45